EWG8GJ EGKK-EDDS
Flight info
| Callsign | EWG8GJ |
|---|---|
| Flight time | 1h 4m |
| Altitude | 39000 |
| Route | ODVIK Y311 DVR UL9 KONAN UL607 MATUG DCT EMGOD L607 UBIDU L984 RUDUS Z738 UBENO N850 KRH T128 BADSO BADSO2A |
| Aircraft | A319/M-SDE2E3FGIJ1RWXYZ/EB1 |
Departure
| Time | 2026-05-07 15:42 |
|---|---|
| Airport | London Gatwick Airport (EGKK) |
Arrival
| Time | 2026-05-07 16:46 |
|---|---|
| Airport | Stuttgart Airport (EDDS) |
| Time | Latitude | Longitude | Altitude | Speed | Heading |
|---|---|---|---|---|---|
| 2026-05-07 14:53 | 51.15852 | -0.17518 | 204 ft | 0 kts | 348° |
| 2026-05-07 15:30 | 51.15839 | -0.17513 | 209 ft | 4 kts | 348° |
| 2026-05-07 15:30 | 51.15813 | -0.17504 | 208 ft | 4 kts | 348° |
| 2026-05-07 15:30 | 51.15791 | -0.17497 | 215 ft | 4 kts | 345° |
| 2026-05-07 15:30 | 51.15771 | -0.17480 | 236 ft | 4 kts | 292° |
| 2026-05-07 15:31 | 51.15770 | -0.17444 | 212 ft | 4 kts | 257° |
| 2026-05-07 15:31 | 51.15772 | -0.17428 | 213 ft | 0 kts | 257° |
| 2026-05-07 15:34 | 51.15772 | -0.17430 | 214 ft | 1 kts | 257° |
| 2026-05-07 15:34 | 51.15768 | -0.17457 | 212 ft | 4 kts | 258° |
| 2026-05-07 15:34 | 51.15749 | -0.17499 | 205 ft | 6 kts | 212° |
| 2026-05-07 15:34 | 51.15702 | -0.17492 | 212 ft | 8 kts | 167° |
| 2026-05-07 15:35 | 51.15635 | -0.17469 | 208 ft | 11 kts | 168° |
| 2026-05-07 15:35 | 51.15548 | -0.17441 | 205 ft | 14 kts | 166° |
| 2026-05-07 15:35 | 51.15441 | -0.17401 | 211 ft | 17 kts | 168° |
| 2026-05-07 15:35 | 51.15352 | -0.17371 | 207 ft | 10 kts | 168° |
| 2026-05-07 15:36 | 51.15300 | -0.17435 | 211 ft | 12 kts | 260° |
| 2026-05-07 15:36 | 51.15282 | -0.17585 | 207 ft | 15 kts | 257° |
| 2026-05-07 15:36 | 51.15259 | -0.17760 | 208 ft | 17 kts | 258° |
| 2026-05-07 15:36 | 51.15231 | -0.17956 | 204 ft | 19 kts | 257° |
| 2026-05-07 15:37 | 51.15204 | -0.18151 | 204 ft | 17 kts | 258° |
| 2026-05-07 15:37 | 51.15181 | -0.18349 | 204 ft | 20 kts | 261° |
| 2026-05-07 15:37 | 51.15153 | -0.18573 | 204 ft | 22 kts | 258° |
| 2026-05-07 15:37 | 51.15119 | -0.18818 | 203 ft | 23 kts | 257° |
| 2026-05-07 15:38 | 51.15087 | -0.19050 | 204 ft | 19 kts | 257° |
| 2026-05-07 15:38 | 51.15060 | -0.19254 | 204 ft | 18 kts | 257° |
| 2026-05-07 15:38 | 51.15030 | -0.19463 | 204 ft | 20 kts | 257° |
| 2026-05-07 15:38 | 51.14998 | -0.19697 | 213 ft | 23 kts | 257° |
| 2026-05-07 15:39 | 51.14962 | -0.19957 | 204 ft | 25 kts | 258° |
| 2026-05-07 15:39 | 51.14922 | -0.20244 | 203 ft | 26 kts | 257° |
| 2026-05-07 15:39 | 51.14891 | -0.20469 | 205 ft | 18 kts | 257° |
| 2026-05-07 15:39 | 51.14870 | -0.20608 | 213 ft | 10 kts | 250° |
| 2026-05-07 15:40 | 51.14807 | -0.20670 | 206 ft | 9 kts | 200° |
| 2026-05-07 15:40 | 51.14754 | -0.20702 | 210 ft | 9 kts | 202° |
| 2026-05-07 15:40 | 51.14685 | -0.20710 | 204 ft | 12 kts | 167° |
| 2026-05-07 15:40 | 51.14617 | -0.20686 | 206 ft | 8 kts | 168° |
| 2026-05-07 15:41 | 51.14592 | -0.20640 | 208 ft | 3 kts | 82° |
| 2026-05-07 15:41 | 51.14594 | -0.20631 | 211 ft | 0 kts | 75° |
| 2026-05-07 15:41 | 51.14607 | -0.20547 | 207 ft | 30 kts | 77° |
| 2026-05-07 15:41 | 51.14700 | -0.19845 | 210 ft | 97 kts | 78° |
| 2026-05-07 15:42 | 51.14883 | -0.18488 | 221 ft | 149 kts | 79° |
| 2026-05-07 15:42 | 51.15096 | -0.16916 | 843 ft | 142 kts | 77° |
| 2026-05-07 15:42 | 51.15306 | -0.15350 | 1350 ft | 148 kts | 81° |
| 2026-05-07 15:42 | 51.15538 | -0.13629 | 1547 ft | 175 kts | 80° |
| 2026-05-07 15:43 | 51.15811 | -0.11610 | 1880 ft | 198 kts | 81° |
| 2026-05-07 15:43 | 51.16125 | -0.09328 | 2252 ft | 224 kts | 79° |
| 2026-05-07 15:43 | 51.16480 | -0.06766 | 2826 ft | 249 kts | 78° |
| 2026-05-07 15:43 | 51.16839 | -0.04006 | 3707 ft | 259 kts | 83° |
| 2026-05-07 15:44 | 51.16852 | -0.01108 | 4804 ft | 262 kts | 91° |
| 2026-05-07 15:44 | 51.16801 | 0.01829 | 5772 ft | 267 kts | 91° |
| 2026-05-07 15:44 | 51.16745 | 0.04810 | 6776 ft | 271 kts | 92° |
| 2026-05-07 15:44 | 51.16688 | 0.07800 | 7701 ft | 277 kts | 93° |
| 2026-05-07 15:45 | 51.16629 | 0.10904 | 8612 ft | 283 kts | 93° |
| 2026-05-07 15:45 | 51.16568 | 0.14069 | 9555 ft | 288 kts | 94° |
| 2026-05-07 15:45 | 51.16521 | 0.17278 | 10408 ft | 292 kts | 92° |
| 2026-05-07 15:45 | 51.16517 | 0.20540 | 11257 ft | 296 kts | 91° |
| 2026-05-07 15:46 | 51.16544 | 0.27410 | 12215 ft | 332 kts | 91° |
| 2026-05-07 15:46 | 51.16560 | 0.31222 | 12467 ft | 354 kts | 91° |
| 2026-05-07 15:46 | 51.16575 | 0.35205 | 13067 ft | 363 kts | 91° |
| 2026-05-07 15:47 | 51.16589 | 0.39257 | 13777 ft | 367 kts | 91° |
| 2026-05-07 15:47 | 51.16596 | 0.43349 | 14432 ft | 372 kts | 91° |
| 2026-05-07 15:47 | 51.16598 | 0.47483 | 15060 ft | 377 kts | 91° |
| 2026-05-07 15:47 | 51.16600 | 0.51685 | 15695 ft | 381 kts | 91° |
| 2026-05-07 15:48 | 51.16599 | 0.55939 | 16334 ft | 386 kts | 91° |
| 2026-05-07 15:48 | 51.16597 | 0.60237 | 16991 ft | 391 kts | 91° |
| 2026-05-07 15:48 | 51.16591 | 0.64602 | 17666 ft | 396 kts | 91° |
| 2026-05-07 15:48 | 51.16582 | 0.68954 | 18307 ft | 400 kts | 91° |
| 2026-05-07 15:49 | 51.16569 | 0.73418 | 18897 ft | 405 kts | 91° |
| 2026-05-07 15:49 | 51.16555 | 0.77921 | 19506 ft | 409 kts | 91° |
| 2026-05-07 15:49 | 51.16539 | 0.82467 | 20120 ft | 413 kts | 91° |
| 2026-05-07 15:49 | 51.16525 | 0.87059 | 20717 ft | 416 kts | 91° |
| 2026-05-07 15:50 | 51.16509 | 0.91691 | 21290 ft | 420 kts | 91° |
| 2026-05-07 15:50 | 51.16492 | 0.96362 | 21873 ft | 423 kts | 91° |
| 2026-05-07 15:50 | 51.16474 | 1.01056 | 22411 ft | 426 kts | 91° |
| 2026-05-07 15:50 | 51.16453 | 1.05817 | 22924 ft | 430 kts | 91° |
| 2026-05-07 15:51 | 51.16431 | 1.10595 | 23426 ft | 433 kts | 91° |
| 2026-05-07 15:51 | 51.16406 | 1.15402 | 23875 ft | 436 kts | 91° |
| 2026-05-07 15:51 | 51.16377 | 1.20256 | 24289 ft | 440 kts | 91° |
| 2026-05-07 15:51 | 51.16345 | 1.25148 | 24705 ft | 442 kts | 91° |
| 2026-05-07 15:52 | 51.16309 | 1.30066 | 25125 ft | 445 kts | 91° |
| 2026-05-07 15:52 | 51.16271 | 1.35015 | 25544 ft | 448 kts | 91° |
| 2026-05-07 15:52 | 51.16173 | 1.39982 | 25956 ft | 451 kts | 94° |
| 2026-05-07 15:52 | 51.15975 | 1.44977 | 26371 ft | 453 kts | 95° |
| 2026-05-07 15:53 | 51.15710 | 1.49989 | 26784 ft | 455 kts | 96° |
| 2026-05-07 15:53 | 51.15416 | 1.55031 | 27186 ft | 458 kts | 96° |
| 2026-05-07 15:53 | 51.15122 | 1.60098 | 27572 ft | 461 kts | 96° |
| 2026-05-07 15:53 | 51.14841 | 1.65202 | 27950 ft | 464 kts | 96° |
| 2026-05-07 15:54 | 51.14574 | 1.70335 | 28320 ft | 466 kts | 95° |
| 2026-05-07 15:54 | 51.14319 | 1.75484 | 28677 ft | 469 kts | 95° |
| 2026-05-07 15:54 | 51.14066 | 1.80678 | 29031 ft | 472 kts | 95° |
| 2026-05-07 15:54 | 51.13808 | 1.85902 | 29381 ft | 474 kts | 95° |
| 2026-05-07 15:55 | 51.13542 | 1.91152 | 29722 ft | 477 kts | 95° |
| 2026-05-07 15:55 | 51.13268 | 1.96411 | 30197 ft | 476 kts | 96° |
| 2026-05-07 15:55 | 51.12993 | 2.01657 | 30631 ft | 475 kts | 96° |
| 2026-05-07 15:55 | 51.12719 | 2.06832 | 31055 ft | 474 kts | 96° |
| 2026-05-07 15:56 | 51.12440 | 2.12054 | 31486 ft | 473 kts | 96° |
| 2026-05-07 15:56 | 51.12158 | 2.17267 | 31924 ft | 472 kts | 96° |
| 2026-05-07 15:56 | 51.11873 | 2.22469 | 32377 ft | 471 kts | 96° |
| 2026-05-07 15:56 | 51.11589 | 2.27673 | 32811 ft | 470 kts | 96° |
| 2026-05-07 15:57 | 51.11304 | 2.32847 | 33254 ft | 470 kts | 96° |
| 2026-05-07 15:57 | 51.11014 | 2.38019 | 33705 ft | 469 kts | 96° |
| 2026-05-07 15:57 | 51.10727 | 2.43182 | 34125 ft | 469 kts | 96° |
| 2026-05-07 15:57 | 51.10439 | 2.48370 | 34439 ft | 469 kts | 96° |
| 2026-05-07 15:58 | 51.10149 | 2.53552 | 34780 ft | 469 kts | 96° |
| 2026-05-07 15:58 | 51.09853 | 2.58721 | 35132 ft | 469 kts | 96° |
| 2026-05-07 15:58 | 51.09518 | 2.63886 | 35478 ft | 468 kts | 100° |
| 2026-05-07 15:58 | 51.08809 | 2.68924 | 35807 ft | 467 kts | 108° |
| 2026-05-07 15:59 | 51.07910 | 2.73876 | 36131 ft | 467 kts | 108° |
| 2026-05-07 15:59 | 51.07006 | 2.78831 | 36453 ft | 466 kts | 108° |
| 2026-05-07 15:59 | 51.06112 | 2.83726 | 36777 ft | 466 kts | 108° |
| 2026-05-07 15:59 | 51.05208 | 2.88684 | 37096 ft | 466 kts | 108° |
| 2026-05-07 16:00 | 51.04309 | 2.93629 | 37401 ft | 466 kts | 108° |
| 2026-05-07 16:00 | 51.03410 | 2.98572 | 37701 ft | 466 kts | 108° |
| 2026-05-07 16:00 | 51.02506 | 3.03522 | 37989 ft | 465 kts | 108° |
| 2026-05-07 16:00 | 51.01601 | 3.08448 | 38275 ft | 465 kts | 108° |
| 2026-05-07 16:01 | 51.00687 | 3.13383 | 38567 ft | 465 kts | 108° |
| 2026-05-07 16:01 | 50.99771 | 3.18309 | 38809 ft | 465 kts | 108° |
| 2026-05-07 16:01 | 50.98857 | 3.23234 | 38990 ft | 466 kts | 108° |
| 2026-05-07 16:02 | 50.97028 | 3.33097 | 39065 ft | 464 kts | 108° |
| 2026-05-07 16:02 | 50.95193 | 3.42920 | 39066 ft | 466 kts | 108° |
| 2026-05-07 16:03 | 50.93333 | 3.52786 | 39066 ft | 466 kts | 108° |
| 2026-05-07 16:03 | 50.91477 | 3.62563 | 39066 ft | 466 kts | 108° |
| 2026-05-07 16:04 | 50.89600 | 3.72388 | 39074 ft | 466 kts | 109° |
| 2026-05-07 16:04 | 50.87698 | 3.82226 | 39073 ft | 466 kts | 109° |
| 2026-05-07 16:05 | 50.85794 | 3.92037 | 39081 ft | 467 kts | 109° |
| 2026-05-07 16:05 | 50.84199 | 4.00212 | 39084 ft | 467 kts | 109° |
| 2026-05-07 16:06 | 50.82272 | 4.10018 | 39091 ft | 467 kts | 109° |
| 2026-05-07 16:06 | 50.80340 | 4.19827 | 39098 ft | 467 kts | 109° |
| 2026-05-07 16:07 | 50.78410 | 4.29621 | 39091 ft | 467 kts | 109° |
| 2026-05-07 16:07 | 50.76459 | 4.39418 | 39099 ft | 467 kts | 109° |
| 2026-05-07 16:08 | 50.74498 | 4.49218 | 39092 ft | 468 kts | 109° |
| 2026-05-07 16:08 | 50.72530 | 4.58996 | 39098 ft | 468 kts | 109° |
| 2026-05-07 16:09 | 50.70588 | 4.68796 | 39095 ft | 468 kts | 109° |
| 2026-05-07 16:09 | 50.68699 | 4.78642 | 39099 ft | 468 kts | 108° |
| 2026-05-07 16:10 | 50.66803 | 4.88455 | 39101 ft | 468 kts | 109° |
| 2026-05-07 16:10 | 50.64864 | 4.98241 | 39096 ft | 468 kts | 109° |
| 2026-05-07 16:11 | 50.62863 | 5.07916 | 39101 ft | 468 kts | 110° |
| 2026-05-07 16:11 | 50.60814 | 5.17701 | 39093 ft | 467 kts | 110° |
| 2026-05-07 16:12 | 50.58812 | 5.27345 | 39095 ft | 467 kts | 110° |
| 2026-05-07 16:12 | 50.56797 | 5.37069 | 39094 ft | 467 kts | 110° |
| 2026-05-07 16:13 | 50.54767 | 5.46776 | 39093 ft | 467 kts | 110° |
| 2026-05-07 16:13 | 50.52725 | 5.56454 | 39092 ft | 466 kts | 110° |
| 2026-05-07 16:14 | 50.50969 | 5.66259 | 39076 ft | 468 kts | 103° |
| 2026-05-07 16:14 | 50.49684 | 5.76303 | 39066 ft | 468 kts | 103° |
| 2026-05-07 16:15 | 50.48386 | 5.86331 | 39067 ft | 468 kts | 103° |
| 2026-05-07 16:15 | 50.47077 | 5.96352 | 39064 ft | 468 kts | 103° |
| 2026-05-07 16:16 | 50.45764 | 6.06369 | 39060 ft | 469 kts | 103° |
| 2026-05-07 16:16 | 50.44430 | 6.16377 | 39061 ft | 469 kts | 103° |
| 2026-05-07 16:17 | 50.43089 | 6.26388 | 39063 ft | 469 kts | 103° |
| 2026-05-07 16:17 | 50.41721 | 6.36385 | 39053 ft | 468 kts | 107° |
| 2026-05-07 16:18 | 50.39642 | 6.46023 | 39057 ft | 467 kts | 111° |
| 2026-05-07 16:18 | 50.37485 | 6.55556 | 39049 ft | 467 kts | 111° |
| 2026-05-07 16:19 | 50.35313 | 6.65138 | 39053 ft | 467 kts | 111° |
| 2026-05-07 16:19 | 50.33124 | 6.74717 | 39058 ft | 467 kts | 111° |
| 2026-05-07 16:20 | 50.30927 | 6.84283 | 39063 ft | 468 kts | 111° |
| 2026-05-07 16:20 | 50.28724 | 6.93864 | 39063 ft | 467 kts | 111° |
| 2026-05-07 16:21 | 50.26510 | 7.03438 | 39070 ft | 467 kts | 111° |
| 2026-05-07 16:21 | 50.24295 | 7.12969 | 39072 ft | 467 kts | 111° |
| 2026-05-07 16:22 | 50.22065 | 7.22503 | 39071 ft | 467 kts | 111° |
| 2026-05-07 16:22 | 50.19829 | 7.32035 | 39067 ft | 467 kts | 111° |
| 2026-05-07 16:23 | 50.17706 | 7.41614 | 39049 ft | 468 kts | 110° |
| 2026-05-07 16:23 | 50.15718 | 7.51279 | 39040 ft | 468 kts | 109° |
| 2026-05-07 16:24 | 50.13722 | 7.60936 | 39047 ft | 469 kts | 110° |
| 2026-05-07 16:24 | 50.11668 | 7.70578 | 39055 ft | 469 kts | 110° |
| 2026-05-07 16:25 | 50.09587 | 7.80209 | 39051 ft | 469 kts | 110° |
| 2026-05-07 16:25 | 50.07266 | 7.89682 | 39056 ft | 467 kts | 119° |
| 2026-05-07 16:26 | 50.03830 | 7.98209 | 39056 ft | 464 kts | 128° |
| 2026-05-07 16:26 | 50.00005 | 8.06303 | 39060 ft | 465 kts | 128° |
| 2026-05-07 16:27 | 49.96358 | 8.14621 | 39063 ft | 466 kts | 125° |
| 2026-05-07 16:27 | 49.92895 | 8.23127 | 38653 ft | 466 kts | 123° |
| 2026-05-07 16:27 | 49.91177 | 8.27400 | 38338 ft | 464 kts | 124° |
| 2026-05-07 16:28 | 49.89460 | 8.31630 | 37740 ft | 464 kts | 124° |
| 2026-05-07 16:28 | 49.87716 | 8.35868 | 37078 ft | 465 kts | 124° |
| 2026-05-07 16:28 | 49.85964 | 8.40078 | 36428 ft | 466 kts | 124° |
| 2026-05-07 16:28 | 49.84197 | 8.44299 | 35781 ft | 466 kts | 124° |
| 2026-05-07 16:29 | 49.82426 | 8.48516 | 35133 ft | 466 kts | 124° |
| 2026-05-07 16:29 | 49.80657 | 8.52707 | 34484 ft | 466 kts | 124° |
| 2026-05-07 16:29 | 49.78879 | 8.56906 | 33713 ft | 466 kts | 123° |
| 2026-05-07 16:29 | 49.77095 | 8.61100 | 32811 ft | 467 kts | 124° |
| 2026-05-07 16:30 | 49.75284 | 8.65264 | 31911 ft | 467 kts | 127° |
| 2026-05-07 16:30 | 49.73060 | 8.68873 | 31254 ft | 460 kts | 141° |
| 2026-05-07 16:30 | 49.70420 | 8.71578 | 30638 ft | 453 kts | 153° |
| 2026-05-07 16:30 | 49.67630 | 8.73786 | 29991 ft | 448 kts | 154° |
| 2026-05-07 16:31 | 49.64869 | 8.75958 | 29229 ft | 443 kts | 154° |
| 2026-05-07 16:31 | 49.62153 | 8.78087 | 28476 ft | 438 kts | 154° |
| 2026-05-07 16:31 | 49.59454 | 8.80199 | 27751 ft | 433 kts | 154° |
| 2026-05-07 16:31 | 49.56776 | 8.82290 | 27041 ft | 428 kts | 154° |
| 2026-05-07 16:32 | 49.54135 | 8.84352 | 26342 ft | 423 kts | 154° |
| 2026-05-07 16:32 | 49.51518 | 8.86395 | 25648 ft | 419 kts | 154° |
| 2026-05-07 16:32 | 49.48934 | 8.88411 | 24982 ft | 414 kts | 154° |
| 2026-05-07 16:32 | 49.46379 | 8.90400 | 24325 ft | 410 kts | 154° |
| 2026-05-07 16:33 | 49.43846 | 8.92368 | 23698 ft | 406 kts | 155° |
| 2026-05-07 16:33 | 49.41359 | 8.94300 | 23001 ft | 403 kts | 155° |
| 2026-05-07 16:33 | 49.38868 | 8.96231 | 22277 ft | 400 kts | 155° |
| 2026-05-07 16:33 | 49.36396 | 8.98144 | 21603 ft | 397 kts | 155° |
| 2026-05-07 16:34 | 49.33940 | 9.00044 | 20966 ft | 394 kts | 155° |
| 2026-05-07 16:34 | 49.31506 | 9.01924 | 20325 ft | 390 kts | 155° |
| 2026-05-07 16:34 | 49.29090 | 9.03783 | 19693 ft | 386 kts | 155° |
| 2026-05-07 16:34 | 49.26703 | 9.05618 | 19065 ft | 383 kts | 155° |
| 2026-05-07 16:35 | 49.24329 | 9.07446 | 18429 ft | 379 kts | 155° |
| 2026-05-07 16:35 | 49.21987 | 9.09249 | 17720 ft | 376 kts | 155° |
| 2026-05-07 16:35 | 49.19670 | 9.11063 | 17019 ft | 372 kts | 152° |
| 2026-05-07 16:35 | 49.17473 | 9.13133 | 16336 ft | 369 kts | 149° |
| 2026-05-07 16:36 | 49.15312 | 9.15223 | 15675 ft | 365 kts | 149° |
| 2026-05-07 16:36 | 49.13169 | 9.17290 | 15038 ft | 361 kts | 149° |
| 2026-05-07 16:36 | 49.11058 | 9.19307 | 14410 ft | 357 kts | 149° |
| 2026-05-07 16:36 | 49.08954 | 9.21298 | 13763 ft | 354 kts | 149° |
| 2026-05-07 16:37 | 49.06865 | 9.23247 | 13100 ft | 350 kts | 149° |
| 2026-05-07 16:37 | 49.04804 | 9.25192 | 12476 ft | 346 kts | 149° |
| 2026-05-07 16:37 | 49.02788 | 9.27121 | 11963 ft | 339 kts | 149° |
| 2026-05-07 16:37 | 49.00813 | 9.29020 | 11456 ft | 333 kts | 149° |
| 2026-05-07 16:38 | 48.98880 | 9.30906 | 10957 ft | 328 kts | 149° |
| 2026-05-07 16:38 | 48.96977 | 9.32772 | 10459 ft | 323 kts | 149° |
| 2026-05-07 16:38 | 48.95104 | 9.34624 | 9986 ft | 320 kts | 149° |
| 2026-05-07 16:38 | 48.93255 | 9.36469 | 9456 ft | 316 kts | 149° |
| 2026-05-07 16:39 | 48.91417 | 9.38303 | 8911 ft | 313 kts | 149° |
| 2026-05-07 16:39 | 48.89609 | 9.40105 | 8393 ft | 310 kts | 149° |
| 2026-05-07 16:39 | 48.87844 | 9.41861 | 7876 ft | 302 kts | 149° |
| 2026-05-07 16:39 | 48.86094 | 9.43598 | 7368 ft | 294 kts | 149° |
| 2026-05-07 16:40 | 48.84430 | 9.45246 | 6932 ft | 286 kts | 149° |
| 2026-05-07 16:40 | 48.82784 | 9.46874 | 6505 ft | 279 kts | 149° |
| 2026-05-07 16:40 | 48.81178 | 9.48461 | 6071 ft | 273 kts | 149° |
| 2026-05-07 16:40 | 48.79597 | 9.50006 | 5629 ft | 267 kts | 149° |
| 2026-05-07 16:41 | 48.78003 | 9.51374 | 5240 ft | 259 kts | 163° |
| 2026-05-07 16:41 | 48.76245 | 9.51680 | 4859 ft | 247 kts | 190° |
| 2026-05-07 16:41 | 48.74768 | 9.50690 | 4630 ft | 226 kts | 226° |
| 2026-05-07 16:41 | 48.73980 | 9.48801 | 4472 ft | 205 kts | 255° |
| 2026-05-07 16:42 | 48.73607 | 9.46804 | 4259 ft | 194 kts | 257° |
| 2026-05-07 16:42 | 48.73248 | 9.44861 | 3987 ft | 188 kts | 257° |
| 2026-05-07 16:42 | 48.72898 | 9.42986 | 3728 ft | 182 kts | 258° |
| 2026-05-07 16:42 | 48.72558 | 9.41171 | 3492 ft | 176 kts | 257° |
| 2026-05-07 16:43 | 48.72229 | 9.39410 | 3256 ft | 172 kts | 258° |
| 2026-05-07 16:43 | 48.71906 | 9.37691 | 3026 ft | 168 kts | 258° |
| 2026-05-07 16:43 | 48.71594 | 9.36031 | 2824 ft | 158 kts | 259° |
| 2026-05-07 16:43 | 48.71301 | 9.34476 | 2628 ft | 149 kts | 259° |
| 2026-05-07 16:44 | 48.71024 | 9.33003 | 2433 ft | 146 kts | 257° |
| 2026-05-07 16:44 | 48.70741 | 9.31519 | 2209 ft | 147 kts | 257° |
| 2026-05-07 16:44 | 48.70460 | 9.30031 | 2009 ft | 146 kts | 257° |
| 2026-05-07 16:44 | 48.70182 | 9.28572 | 1799 ft | 143 kts | 257° |
| 2026-05-07 16:45 | 48.69908 | 9.27134 | 1628 ft | 141 kts | 259° |
| 2026-05-07 16:45 | 48.69649 | 9.25706 | 1416 ft | 140 kts | 258° |
| 2026-05-07 16:45 | 48.69385 | 9.24302 | 1226 ft | 138 kts | 257° |
| 2026-05-07 16:45 | 48.69146 | 9.23028 | 1216 ft | 108 kts | 254° |
| 2026-05-07 16:46 | 48.68982 | 9.22170 | 1240 ft | 66 kts | 253° |
| 2026-05-07 16:46 | 48.68879 | 9.21629 | 1250 ft | 43 kts | 254° |
| 2026-05-07 16:46 | 48.68819 | 9.21249 | 1258 ft | 31 kts | 263° |
| 2026-05-07 16:46 | 48.68835 | 9.20990 | 1269 ft | 16 kts | 283° |
| 2026-05-07 16:47 | 48.68857 | 9.20855 | 1271 ft | 12 kts | 285° |
| 2026-05-07 16:47 | 48.68868 | 9.20794 | 1272 ft | 8 kts | 285° |
| 2026-05-07 16:47 | 48.68876 | 9.20754 | 1275 ft | 2 kts | 286° |
| 2026-05-07 16:47 | 48.68879 | 9.20738 | 1276 ft | 1 kts | 286° |
| 2026-05-07 16:48 | 48.68885 | 9.20726 | 1275 ft | 2 kts | 310° |
| 2026-05-07 16:48 | 48.68911 | 9.20696 | 1276 ft | 8 kts | 323° |
| 2026-05-07 16:48 | 48.68948 | 9.20612 | 1280 ft | 12 kts | 270° |
| 2026-05-07 16:48 | 48.68920 | 9.20469 | 1284 ft | 15 kts | 252° |
| 2026-05-07 16:49 | 48.68893 | 9.20313 | 1288 ft | 15 kts | 254° |
| 2026-05-07 16:49 | 48.68863 | 9.20157 | 1292 ft | 15 kts | 254° |
| 2026-05-07 16:49 | 48.68831 | 9.20008 | 1295 ft | 12 kts | 244° |
| 2026-05-07 16:49 | 48.68833 | 9.19901 | 1299 ft | 10 kts | 321° |
| 2026-05-07 16:50 | 48.68892 | 9.19852 | 1303 ft | 11 kts | 295° |
| 2026-05-07 16:50 | 48.68876 | 9.19744 | 1307 ft | 11 kts | 253° |
| 2026-05-07 16:50 | 48.68855 | 9.19634 | 1309 ft | 11 kts | 253° |
| 2026-05-07 16:50 | 48.68834 | 9.19524 | 1311 ft | 9 kts | 253° |
| 2026-05-07 16:51 | 48.68836 | 9.19456 | 1313 ft | 6 kts | 318° |
| 2026-05-07 16:51 | 48.68873 | 9.19438 | 1315 ft | 6 kts | 344° |
| 2026-05-07 16:51 | 48.68898 | 9.19428 | 1315 ft | 0 kts | 344° |